ベレン の空港の天気 - METARとTAF

ベレン国際空港 ( SBBE / BEL ) - ブラジル パラー州ベレン
飛行場実況気象(Metar)
観測時間02/17 10:30 AMT (02/17 14:30 UTC)
風向・風速北北西 3m/s
視程500m
天気現象強い雨
全天の4割程度の雲 雲底高度 180m
全天の8割程度の雲 雲底高度 300m
全天の8割程度の雲 雲底高度 460m
少しの雲 雲底高度 760m
気温26℃
湿度94%
気圧1014hPa
METARSBBE 171430Z 34006KT 0500 R06///// +RA SCT006 BKN010 BKN015 FEW 025TCU 26/25 Q1014
過去の天気等 Google飛行場航空写真 Wunderground天気予報

過去48時間のMETAR

飛行場予報(TAF)
発表時間: 2/17 06:00 AMT (2/17 10:00 UTC)
予報対象時間: 17日8時 AMT ~ 18日8時 AMT
風向・風速東 3m/s
視程10km以上
全天の4割程度の雲 雲底高度 460m
17日9時 AMT ~ 17日11時 AMT に徐々に
風向・風速北東 8m/s
全天の4割程度の雲 雲底高度 760m
少しの塔状積雲 雲底高度 910m
17日12時 AMT ~ 17日15時 AMT に一時的に
風向・風速北 5m/s
視程4000m
天気現象雷雨
全天の8割程度の雲 雲底高度 610m
少しの積乱雲 雲底高度 760m
17日18時 AMT ~ 17日20時 AMT に徐々に
風向・風速東北東 4m/s
視程10km以上
なし
TAF SBBE 171000Z 1712/1812 09005KT 9999 SCT015 TX28/1716Z TN24/1806Z
BECMG 1713/1715 05015KT SCT025 FEW030TCU
TEMPO 1716/1719 36010KT 4000 TSRA BKN020 FEW025CB
BECMG 1722/1724 06008KT CAVOK RMK PCQ